sensor_id;sensor_type;location;lat;lon;timestamp;P1;durP1;ratioP1;P2;durP2;ratioP2
20525;SDS011;10421;49.142;9.232;2022-09-24T00:00:43;8.30;;;5.60;;
20525;SDS011;10421;49.142;9.232;2022-09-24T00:03:16;10.40;;;5.73;;
20525;SDS011;10421;49.142;9.232;2022-09-24T00:05:44;10.77;;;6.17;;
20525;SDS011;10421;49.142;9.232;2022-09-24T00:08:11;7.83;;;5.20;;
20525;SDS011;10421;49.142;9.232;2022-09-24T00:10:40;6.83;;;5.20;;
20525;SDS011;10421;49.142;9.232;2022-09-24T00:13:09;10.53;;;5.50;;
20525;SDS011;10421;49.142;9.232;2022-09-24T00:15:37;7.73;;;5.40;;
20525;SDS011;10421;49.142;9.232;2022-09-24T00:18:05;6.50;;;4.40;;
20525;SDS011;10421;49.142;9.232;2022-09-24T00:20:32;7.93;;;5.27;;
20525;SDS011;10421;49.142;9.232;2022-09-24T00:22:59;9.70;;;5.20;;
20525;SDS011;10421;49.142;9.232;2022-09-24T00:25:26;10.47;;;5.70;;
20525;SDS011;10421;49.142;9.232;2022-09-24T00:28:11;9.80;;;5.77;;
20525;SDS011;10421;49.142;9.232;2022-09-24T00:30:38;9.03;;;5.53;;
20525;SDS011;10421;49.142;9.232;2022-09-24T00:33:07;9.30;;;5.50;;
20525;SDS011;10421;49.142;9.232;2022-09-24T00:35:34;8.70;;;5.20;;
20525;SDS011;10421;49.142;9.232;2022-09-24T00:38:02;9.60;;;5.47;;
20525;SDS011;10421;49.142;9.232;2022-09-24T00:40:30;8.87;;;5.20;;
20525;SDS011;10421;49.142;9.232;2022-09-24T00:42:59;9.47;;;5.60;;
20525;SDS011;10421;49.142;9.232;2022-09-24T00:45:26;8.37;;;5.30;;
20525;SDS011;10421;49.142;9.232;2022-09-24T00:47:55;8.63;;;6.00;;
20525;SDS011;10421;49.142;9.232;2022-09-24T00:50:25;10.73;;;6.40;;
20525;SDS011;10421;49.142;9.232;2022-09-24T00:52:56;9.50;;;6.23;;
20525;SDS011;10421;49.142;9.232;2022-09-24T00:55:26;7.40;;;5.20;;
20525;SDS011;10421;49.142;9.232;2022-09-24T00:57:54;9.87;;;5.80;;
20525;SDS011;10421;49.142;9.232;2022-09-24T01:00:23;10.30;;;5.70;;
20525;SDS011;10421;49.142;9.232;2022-09-24T01:02:51;10.47;;;6.23;;
20525;SDS011;10421;49.142;9.232;2022-09-24T01:05:21;10.93;;;5.80;;
20525;SDS011;10421;49.142;9.232;2022-09-24T01:07:49;9.57;;;5.40;;
20525;SDS011;10421;49.142;9.232;2022-09-24T01:10:16;12.10;;;6.53;;
20525;SDS011;10421;49.142;9.232;2022-09-24T01:13:05;9.17;;;6.20;;
20525;SDS011;10421;49.142;9.232;2022-09-24T01:15:40;7.80;;;5.70;;
20525;SDS011;10421;49.142;9.232;2022-09-24T01:18:12;11.03;;;6.60;;
20525;SDS011;10421;49.142;9.232;2022-09-24T01:20:48;9.27;;;5.63;;
20525;SDS011;10421;49.142;9.232;2022-09-24T01:23:28;8.83;;;5.60;;
20525;SDS011;10421;49.142;9.232;2022-09-24T01:26:15;8.93;;;6.00;;
20525;SDS011;10421;49.142;9.232;2022-09-24T01:28:58;9.50;;;5.67;;
20525;SDS011;10421;49.142;9.232;2022-09-24T01:31:33;11.40;;;6.70;;
20525;SDS011;10421;49.142;9.232;2022-09-24T01:34:04;7.93;;;5.90;;
20525;SDS011;10421;49.142;9.232;2022-09-24T01:36:33;10.07;;;5.77;;
20525;SDS011;10421;49.142;9.232;2022-09-24T01:39:02;8.93;;;5.67;;
20525;SDS011;10421;49.142;9.232;2022-09-24T01:41:33;14.17;;;5.80;;
20525;SDS011;10421;49.142;9.232;2022-09-24T01:44:02;7.03;;;5.30;;
20525;SDS011;10421;49.142;9.232;2022-09-24T01:46:30;9.53;;;5.53;;
20525;SDS011;10421;49.142;9.232;2022-09-24T01:48:59;10.50;;;5.60;;
20525;SDS011;10421;49.142;9.232;2022-09-24T01:51:26;9.03;;;5.83;;
20525;SDS011;10421;49.142;9.232;2022-09-24T01:53:59;10.57;;;6.00;;
20525;SDS011;10421;49.142;9.232;2022-09-24T01:56:29;7.30;;;5.50;;
20525;SDS011;10421;49.142;9.232;2022-09-24T01:59:03;8.20;;;6.00;;
20525;SDS011;10421;49.142;9.232;2022-09-24T02:01:37;10.70;;;6.40;;
20525;SDS011;10421;49.142;9.232;2022-09-24T02:04:10;10.90;;;6.20;;
20525;SDS011;10421;49.142;9.232;2022-09-24T02:06:41;7.93;;;5.30;;
20525;SDS011;10421;49.142;9.232;2022-09-24T02:11:58;13.07;;;6.57;;
20525;SDS011;10421;49.142;9.232;2022-09-24T02:14:31;13.80;;;6.60;;
20525;SDS011;10421;49.142;9.232;2022-09-24T02:17:02;9.70;;;6.20;;
20525;SDS011;10421;49.142;9.232;2022-09-24T02:19:32;10.63;;;5.90;;
20525;SDS011;10421;49.142;9.232;2022-09-24T02:22:01;11.43;;;6.40;;
20525;SDS011;10421;49.142;9.232;2022-09-24T02:24:32;9.47;;;6.27;;
20525;SDS011;10421;49.142;9.232;2022-09-24T02:27:05;15.00;;;6.40;;
20525;SDS011;10421;49.142;9.232;2022-09-24T02:29:32;10.93;;;6.77;;
20525;SDS011;10421;49.142;9.232;2022-09-24T02:31:59;10.90;;;6.50;;
20525;SDS011;10421;49.142;9.232;2022-09-24T02:34:30;19.30;;;8.90;;
20525;SDS011;10421;49.142;9.232;2022-09-24T02:36:59;9.53;;;5.90;;
20525;SDS011;10421;49.142;9.232;2022-09-24T02:39:30;8.33;;;5.80;;
20525;SDS011;10421;49.142;9.232;2022-09-24T02:41:57;9.03;;;5.70;;
20525;SDS011;10421;49.142;9.232;2022-09-24T02:44:25;10.17;;;6.90;;
20525;SDS011;10421;49.142;9.232;2022-09-24T02:46:53;11.90;;;6.87;;
20525;SDS011;10421;49.142;9.232;2022-09-24T02:49:21;9.57;;;6.50;;
20525;SDS011;10421;49.142;9.232;2022-09-24T02:51:48;10.30;;;6.37;;
20525;SDS011;10421;49.142;9.232;2022-09-24T02:54:14;10.10;;;6.93;;
20525;SDS011;10421;49.142;9.232;2022-09-24T02:56:41;11.00;;;6.57;;
20525;SDS011;10421;49.142;9.232;2022-09-24T02:59:08;11.20;;;6.10;;
20525;SDS011;10421;49.142;9.232;2022-09-24T03:01:36;9.83;;;6.13;;
20525;SDS011;10421;49.142;9.232;2022-09-24T03:04:03;9.63;;;5.80;;
20525;SDS011;10421;49.142;9.232;2022-09-24T03:06:31;12.20;;;6.70;;
20525;SDS011;10421;49.142;9.232;2022-09-24T03:08:58;11.03;;;5.87;;
20525;SDS011;10421;49.142;9.232;2022-09-24T03:11:26;6.80;;;4.70;;
20525;SDS011;10421;49.142;9.232;2022-09-24T03:13:53;9.30;;;5.80;;
20525;SDS011;10421;49.142;9.232;2022-09-24T03:16:19;10.73;;;6.00;;
20525;SDS011;10421;49.142;9.232;2022-09-24T03:18:46;8.57;;;6.00;;
20525;SDS011;10421;49.142;9.232;2022-09-24T03:21:14;12.37;;;7.20;;
20525;SDS011;10421;49.142;9.232;2022-09-24T03:23:43;8.83;;;5.80;;
20525;SDS011;10421;49.142;9.232;2022-09-24T03:26:11;14.03;;;6.80;;
20525;SDS011;10421;49.142;9.232;2022-09-24T03:28:38;9.83;;;6.43;;
20525;SDS011;10421;49.142;9.232;2022-09-24T03:31:05;10.77;;;6.23;;
20525;SDS011;10421;49.142;9.232;2022-09-24T03:33:32;11.17;;;6.73;;
20525;SDS011;10421;49.142;9.232;2022-09-24T03:36:02;7.87;;;5.03;;
20525;SDS011;10421;49.142;9.232;2022-09-24T03:38:31;13.60;;;6.83;;
20525;SDS011;10421;49.142;9.232;2022-09-24T03:40:59;11.13;;;6.00;;
20525;SDS011;10421;49.142;9.232;2022-09-24T03:43:27;14.70;;;7.57;;
20525;SDS011;10421;49.142;9.232;2022-09-24T03:45:54;9.57;;;6.60;;
20525;SDS011;10421;49.142;9.232;2022-09-24T03:48:21;8.03;;;5.50;;
20525;SDS011;10421;49.142;9.232;2022-09-24T03:50:49;11.70;;;6.73;;
20525;SDS011;10421;49.142;9.232;2022-09-24T03:53:16;10.77;;;6.20;;
20525;SDS011;10421;49.142;9.232;2022-09-24T03:55:44;11.83;;;6.67;;
20525;SDS011;10421;49.142;9.232;2022-09-24T03:58:13;11.50;;;6.20;;
20525;SDS011;10421;49.142;9.232;2022-09-24T04:00:41;13.73;;;6.03;;
20525;SDS011;10421;49.142;9.232;2022-09-24T04:03:07;7.47;;;5.63;;
20525;SDS011;10421;49.142;9.232;2022-09-24T04:05:35;9.37;;;6.27;;
20525;SDS011;10421;49.142;9.232;2022-09-24T04:08:02;9.53;;;5.80;;
20525;SDS011;10421;49.142;9.232;2022-09-24T04:10:30;14.83;;;7.37;;
20525;SDS011;10421;49.142;9.232;2022-09-24T04:12:57;14.33;;;6.60;;
20525;SDS011;10421;49.142;9.232;2022-09-24T04:15:26;11.47;;;5.80;;
20525;SDS011;10421;49.142;9.232;2022-09-24T04:17:53;11.00;;;6.70;;
20525;SDS011;10421;49.142;9.232;2022-09-24T04:20:21;12.13;;;6.60;;
20525;SDS011;10421;49.142;9.232;2022-09-24T04:22:50;9.57;;;6.10;;
20525;SDS011;10421;49.142;9.232;2022-09-24T04:25:18;11.77;;;6.67;;
20525;SDS011;10421;49.142;9.232;2022-09-24T04:27:46;11.10;;;6.40;;
20525;SDS011;10421;49.142;9.232;2022-09-24T04:30:18;11.00;;;6.23;;
20525;SDS011;10421;49.142;9.232;2022-09-24T04:32:46;8.10;;;5.73;;
20525;SDS011;10421;49.142;9.232;2022-09-24T04:35:13;10.87;;;6.20;;
20525;SDS011;10421;49.142;9.232;2022-09-24T04:37:39;9.60;;;5.70;;
20525;SDS011;10421;49.142;9.232;2022-09-24T04:40:07;11.20;;;6.63;;
20525;SDS011;10421;49.142;9.232;2022-09-24T04:42:36;13.20;;;7.10;;
20525;SDS011;10421;49.142;9.232;2022-09-24T04:45:03;9.97;;;6.40;;
20525;SDS011;10421;49.142;9.232;2022-09-24T04:47:31;9.77;;;6.30;;
20525;SDS011;10421;49.142;9.232;2022-09-24T04:49:59;14.70;;;6.90;;
20525;SDS011;10421;49.142;9.232;2022-09-24T04:52:27;9.80;;;6.13;;
20525;SDS011;10421;49.142;9.232;2022-09-24T04:54:56;16.83;;;7.73;;
20525;SDS011;10421;49.142;9.232;2022-09-24T04:57:24;10.90;;;6.53;;
20525;SDS011;10421;49.142;9.232;2022-09-24T04:59:51;10.33;;;5.87;;
20525;SDS011;10421;49.142;9.232;2022-09-24T05:02:18;11.93;;;6.70;;
20525;SDS011;10421;49.142;9.232;2022-09-24T05:04:45;9.07;;;5.97;;
20525;SDS011;10421;49.142;9.232;2022-09-24T05:07:13;14.00;;;7.30;;
20525;SDS011;10421;49.142;9.232;2022-09-24T05:09:40;8.33;;;6.00;;
20525;SDS011;10421;49.142;9.232;2022-09-24T05:12:06;15.73;;;7.20;;
20525;SDS011;10421;49.142;9.232;2022-09-24T05:14:33;10.27;;;6.47;;
20525;SDS011;10421;49.142;9.232;2022-09-24T05:17:00;8.43;;;5.83;;
20525;SDS011;10421;49.142;9.232;2022-09-24T05:19:26;12.03;;;6.67;;
20525;SDS011;10421;49.142;9.232;2022-09-24T05:21:53;8.93;;;6.00;;
20525;SDS011;10421;49.142;9.232;2022-09-24T05:24:21;9.03;;;6.13;;
20525;SDS011;10421;49.142;9.232;2022-09-24T05:26:48;10.53;;;6.77;;
20525;SDS011;10421;49.142;9.232;2022-09-24T05:29:32;9.80;;;6.90;;
20525;SDS011;10421;49.142;9.232;2022-09-24T05:32:01;11.07;;;6.60;;
20525;SDS011;10421;49.142;9.232;2022-09-24T05:34:29;13.07;;;7.40;;
20525;SDS011;10421;49.142;9.232;2022-09-24T05:36:56;14.90;;;7.80;;
20525;SDS011;10421;49.142;9.232;2022-09-24T05:39:25;14.53;;;8.17;;
20525;SDS011;10421;49.142;9.232;2022-09-24T05:41:52;12.63;;;6.60;;
20525;SDS011;10421;49.142;9.232;2022-09-24T05:44:19;15.93;;;6.63;;
20525;SDS011;10421;49.142;9.232;2022-09-24T05:46:46;12.50;;;6.47;;
20525;SDS011;10421;49.142;9.232;2022-09-24T05:49:13;11.00;;;6.30;;
20525;SDS011;10421;49.142;9.232;2022-09-24T05:51:40;11.90;;;6.40;;
20525;SDS011;10421;49.142;9.232;2022-09-24T05:54:06;15.93;;;8.10;;
20525;SDS011;10421;49.142;9.232;2022-09-24T05:56:35;13.40;;;7.23;;
20525;SDS011;10421;49.142;9.232;2022-09-24T05:59:02;13.80;;;7.13;;
20525;SDS011;10421;49.142;9.232;2022-09-24T06:01:29;15.00;;;7.40;;
20525;SDS011;10421;49.142;9.232;2022-09-24T06:03:56;8.97;;;6.30;;
20525;SDS011;10421;49.142;9.232;2022-09-24T06:06:23;26.97;;;7.93;;
20525;SDS011;10421;49.142;9.232;2022-09-24T06:08:50;14.07;;;7.87;;
20525;SDS011;10421;49.142;9.232;2022-09-24T06:11:17;14.37;;;7.40;;
20525;SDS011;10421;49.142;9.232;2022-09-24T06:13:47;15.10;;;8.07;;
20525;SDS011;10421;49.142;9.232;2022-09-24T06:16:15;14.80;;;8.37;;
20525;SDS011;10421;49.142;9.232;2022-09-24T06:18:42;15.00;;;8.90;;
20525;SDS011;10421;49.142;9.232;2022-09-24T06:21:10;11.33;;;7.73;;
20525;SDS011;10421;49.142;9.232;2022-09-24T06:23:37;47.70;;;24.73;;
20525;SDS011;10421;49.142;9.232;2022-09-24T06:26:05;66.60;;;34.20;;
20525;SDS011;10421;49.142;9.232;2022-09-24T06:28:35;42.80;;;22.63;;
20525;SDS011;10421;49.142;9.232;2022-09-24T06:31:04;33.50;;;18.20;;
20525;SDS011;10421;49.142;9.232;2022-09-24T06:33:31;47.27;;;23.93;;
20525;SDS011;10421;49.142;9.232;2022-09-24T06:35:58;28.77;;;16.03;;
20525;SDS011;10421;49.142;9.232;2022-09-24T06:38:26;16.00;;;9.33;;
20525;SDS011;10421;49.142;9.232;2022-09-24T06:40:56;20.43;;;9.80;;
20525;SDS011;10421;49.142;9.232;2022-09-24T06:43:24;17.77;;;9.10;;
20525;SDS011;10421;49.142;9.232;2022-09-24T06:45:53;29.93;;;14.83;;
20525;SDS011;10421;49.142;9.232;2022-09-24T06:48:22;31.23;;;16.30;;
20525;SDS011;10421;49.142;9.232;2022-09-24T06:50:48;27.30;;;14.47;;
20525;SDS011;10421;49.142;9.232;2022-09-24T06:53:15;28.47;;;15.87;;
20525;SDS011;10421;49.142;9.232;2022-09-24T06:55:43;28.53;;;14.03;;
20525;SDS011;10421;49.142;9.232;2022-09-24T06:58:11;30.53;;;15.60;;
20525;SDS011;10421;49.142;9.232;2022-09-24T07:00:39;32.07;;;16.33;;
20525;SDS011;10421;49.142;9.232;2022-09-24T07:03:08;27.77;;;14.40;;
20525;SDS011;10421;49.142;9.232;2022-09-24T07:05:41;21.30;;;11.70;;
20525;SDS011;10421;49.142;9.232;2022-09-24T07:08:08;22.37;;;13.30;;
20525;SDS011;10421;49.142;9.232;2022-09-24T07:10:35;23.13;;;12.30;;
20525;SDS011;10421;49.142;9.232;2022-09-24T07:13:06;20.70;;;11.07;;
20525;SDS011;10421;49.142;9.232;2022-09-24T07:15:32;26.60;;;16.77;;
20525;SDS011;10421;49.142;9.232;2022-09-24T07:17:59;28.27;;;18.17;;
20525;SDS011;10421;49.142;9.232;2022-09-24T07:20:26;25.20;;;15.83;;
20525;SDS011;10421;49.142;9.232;2022-09-24T07:22:54;21.80;;;15.33;;
20525;SDS011;10421;49.142;9.232;2022-09-24T07:25:20;27.50;;;16.83;;
20525;SDS011;10421;49.142;9.232;2022-09-24T07:27:47;32.23;;;18.40;;
20525;SDS011;10421;49.142;9.232;2022-09-24T07:30:14;27.83;;;16.03;;
20525;SDS011;10421;49.142;9.232;2022-09-24T07:32:41;25.40;;;15.70;;
20525;SDS011;10421;49.142;9.232;2022-09-24T07:35:08;25.50;;;14.60;;
20525;SDS011;10421;49.142;9.232;2022-09-24T07:37:35;29.10;;;15.57;;
20525;SDS011;10421;49.142;9.232;2022-09-24T07:40:03;27.00;;;15.27;;
20525;SDS011;10421;49.142;9.232;2022-09-24T07:42:30;29.27;;;15.23;;
20525;SDS011;10421;49.142;9.232;2022-09-24T07:44:57;24.00;;;14.40;;
20525;SDS011;10421;49.142;9.232;2022-09-24T07:47:24;23.03;;;13.73;;
20525;SDS011;10421;49.142;9.232;2022-09-24T07:49:51;26.60;;;15.63;;
20525;SDS011;10421;49.142;9.232;2022-09-24T07:52:20;27.73;;;15.67;;
20525;SDS011;10421;49.142;9.232;2022-09-24T07:54:47;23.23;;;13.47;;
20525;SDS011;10421;49.142;9.232;2022-09-24T07:57:17;22.87;;;13.90;;
20525;SDS011;10421;49.142;9.232;2022-09-24T07:59:43;21.70;;;13.90;;
20525;SDS011;10421;49.142;9.232;2022-09-24T08:02:14;23.90;;;14.30;;
20525;SDS011;10421;49.142;9.232;2022-09-24T08:04:41;22.60;;;12.90;;
20525;SDS011;10421;49.142;9.232;2022-09-24T08:07:08;23.40;;;13.70;;
20525;SDS011;10421;49.142;9.232;2022-09-24T08:09:36;21.80;;;13.03;;
20525;SDS011;10421;49.142;9.232;2022-09-24T08:12:03;28.63;;;15.27;;
20525;SDS011;10421;49.142;9.232;2022-09-24T08:14:32;23.93;;;13.23;;
20525;SDS011;10421;49.142;9.232;2022-09-24T08:16:59;24.43;;;12.03;;
20525;SDS011;10421;49.142;9.232;2022-09-24T08:19:26;25.77;;;12.10;;
20525;SDS011;10421;49.142;9.232;2022-09-24T08:21:55;28.87;;;14.70;;
20525;SDS011;10421;49.142;9.232;2022-09-24T08:24:22;22.07;;;12.17;;
20525;SDS011;10421;49.142;9.232;2022-09-24T08:26:49;19.43;;;10.03;;
20525;SDS011;10421;49.142;9.232;2022-09-24T08:29:16;22.30;;;12.30;;
20525;SDS011;10421;49.142;9.232;2022-09-24T08:31:44;22.50;;;12.30;;
20525;SDS011;10421;49.142;9.232;2022-09-24T08:34:11;26.60;;;13.77;;
20525;SDS011;10421;49.142;9.232;2022-09-24T08:36:38;34.73;;;14.33;;
20525;SDS011;10421;49.142;9.232;2022-09-24T08:39:05;21.87;;;12.83;;
20525;SDS011;10421;49.142;9.232;2022-09-24T08:44:21;18.73;;;11.23;;
20525;SDS011;10421;49.142;9.232;2022-09-24T08:47:13;24.90;;;12.67;;
20525;SDS011;10421;49.142;9.232;2022-09-24T08:49:50;35.67;;;16.33;;
20525;SDS011;10421;49.142;9.232;2022-09-24T08:52:27;23.67;;;13.57;;
20525;SDS011;10421;49.142;9.232;2022-09-24T08:54:59;35.87;;;14.80;;
20525;SDS011;10421;49.142;9.232;2022-09-24T08:57:31;28.20;;;13.43;;
20525;SDS011;10421;49.142;9.232;2022-09-24T09:00:03;20.60;;;10.37;;
20525;SDS011;10421;49.142;9.232;2022-09-24T09:02:35;24.23;;;11.17;;
20525;SDS011;10421;49.142;9.232;2022-09-24T09:05:09;32.70;;;14.63;;
20525;SDS011;10421;49.142;9.232;2022-09-24T09:07:48;24.67;;;12.97;;
20525;SDS011;10421;49.142;9.232;2022-09-24T09:10:23;25.60;;;12.33;;
20525;SDS011;10421;49.142;9.232;2022-09-24T09:12:56;24.30;;;11.80;;
20525;SDS011;10421;49.142;9.232;2022-09-24T09:15:28;23.87;;;13.00;;
20525;SDS011;10421;49.142;9.232;2022-09-24T09:18:00;24.73;;;13.00;;
20525;SDS011;10421;49.142;9.232;2022-09-24T09:20:30;25.30;;;14.03;;
20525;SDS011;10421;49.142;9.232;2022-09-24T09:23:02;29.07;;;16.23;;
20525;SDS011;10421;49.142;9.232;2022-09-24T09:25:35;22.03;;;13.70;;
20525;SDS011;10421;49.142;9.232;2022-09-24T09:28:05;21.60;;;12.13;;
20525;SDS011;10421;49.142;9.232;2022-09-24T09:30:40;28.07;;;14.23;;
20525;SDS011;10421;49.142;9.232;2022-09-24T09:33:18;34.43;;;16.10;;
20525;SDS011;10421;49.142;9.232;2022-09-24T09:35:54;30.47;;;16.80;;
20525;SDS011;10421;49.142;9.232;2022-09-24T09:38:28;31.83;;;16.53;;
20525;SDS011;10421;49.142;9.232;2022-09-24T09:41:02;26.90;;;14.47;;
20525;SDS011;10421;49.142;9.232;2022-09-24T09:43:36;31.87;;;15.40;;
20525;SDS011;10421;49.142;9.232;2022-09-24T09:46:05;24.57;;;14.60;;
20525;SDS011;10421;49.142;9.232;2022-09-24T09:48:40;29.87;;;14.73;;
20525;SDS011;10421;49.142;9.232;2022-09-24T09:51:12;31.13;;;14.17;;
20525;SDS011;10421;49.142;9.232;2022-09-24T09:53:51;31.23;;;15.50;;
20525;SDS011;10421;49.142;9.232;2022-09-24T09:56:21;26.13;;;13.07;;
20525;SDS011;10421;49.142;9.232;2022-09-24T09:58:49;31.27;;;14.23;;
20525;SDS011;10421;49.142;9.232;2022-09-24T10:01:19;29.70;;;15.17;;
20525;SDS011;10421;49.142;9.232;2022-09-24T10:03:58;26.53;;;14.07;;
20525;SDS011;10421;49.142;9.232;2022-09-24T10:06:29;33.93;;;16.13;;
20525;SDS011;10421;49.142;9.232;2022-09-24T10:09:06;27.20;;;12.67;;
20525;SDS011;10421;49.142;9.232;2022-09-24T10:11:38;26.47;;;13.63;;
20525;SDS011;10421;49.142;9.232;2022-09-24T10:14:08;41.17;;;19.03;;
20525;SDS011;10421;49.142;9.232;2022-09-24T10:16:39;30.53;;;16.40;;
20525;SDS011;10421;49.142;9.232;2022-09-24T10:19:16;36.60;;;19.40;;
20525;SDS011;10421;49.142;9.232;2022-09-24T10:21:47;24.13;;;13.70;;
20525;SDS011;10421;49.142;9.232;2022-09-24T10:24:17;33.40;;;17.13;;
20525;SDS011;10421;49.142;9.232;2022-09-24T10:26:47;23.60;;;13.90;;
20525;SDS011;10421;49.142;9.232;2022-09-24T10:29:16;23.67;;;13.10;;
20525;SDS011;10421;49.142;9.232;2022-09-24T10:32:03;19.70;;;11.10;;
20525;SDS011;10421;49.142;9.232;2022-09-24T10:34:32;19.10;;;12.30;;
20525;SDS011;10421;49.142;9.232;2022-09-24T10:37:00;23.20;;;12.37;;
20525;SDS011;10421;49.142;9.232;2022-09-24T10:39:29;25.40;;;12.43;;
20525;SDS011;10421;49.142;9.232;2022-09-24T10:41:56;22.77;;;11.90;;
20525;SDS011;10421;49.142;9.232;2022-09-24T10:44:23;24.77;;;13.30;;
20525;SDS011;10421;49.142;9.232;2022-09-24T10:47:06;21.10;;;10.83;;
20525;SDS011;10421;49.142;9.232;2022-09-24T10:50:01;31.60;;;13.10;;
20525;SDS011;10421;49.142;9.232;2022-09-24T10:52:39;24.03;;;11.83;;
20525;SDS011;10421;49.142;9.232;2022-09-24T10:55:17;26.53;;;13.17;;
20525;SDS011;10421;49.142;9.232;2022-09-24T10:57:51;20.13;;;12.27;;
20525;SDS011;10421;49.142;9.232;2022-09-24T11:00:25;21.37;;;11.40;;
20525;SDS011;10421;49.142;9.232;2022-09-24T11:06:10;21.30;;;12.40;;
20525;SDS011;10421;49.142;9.232;2022-09-24T11:08:50;22.40;;;12.50;;
20525;SDS011;10421;49.142;9.232;2022-09-24T11:11:29;25.30;;;12.90;;
20525;SDS011;10421;49.142;9.232;2022-09-24T11:14:10;28.40;;;14.90;;
20525;SDS011;10421;49.142;9.232;2022-09-24T11:16:49;22.87;;;11.57;;
20525;SDS011;10421;49.142;9.232;2022-09-24T11:19:42;23.50;;;12.20;;
20525;SDS011;10421;49.142;9.232;2022-09-24T11:22:21;21.10;;;11.90;;
20525;SDS011;10421;49.142;9.232;2022-09-24T11:24:57;23.33;;;12.40;;
20525;SDS011;10421;49.142;9.232;2022-09-24T11:27:40;16.63;;;9.90;;
20525;SDS011;10421;49.142;9.232;2022-09-24T11:30:16;19.97;;;11.73;;
20525;SDS011;10421;49.142;9.232;2022-09-24T11:32:49;20.47;;;11.50;;
20525;SDS011;10421;49.142;9.232;2022-09-24T11:35:31;28.77;;;13.33;;
20525;SDS011;10421;49.142;9.232;2022-09-24T11:38:12;20.80;;;11.63;;
20525;SDS011;10421;49.142;9.232;2022-09-24T11:40:48;22.53;;;12.90;;
20525;SDS011;10421;49.142;9.232;2022-09-24T11:43:34;23.97;;;12.43;;
20525;SDS011;10421;49.142;9.232;2022-09-24T11:46:18;22.13;;;11.80;;
20525;SDS011;10421;49.142;9.232;2022-09-24T11:49:00;19.63;;;11.37;;
20525;SDS011;10421;49.142;9.232;2022-09-24T11:51:41;24.23;;;11.87;;
20525;SDS011;10421;49.142;9.232;2022-09-24T11:54:18;24.40;;;12.37;;
20525;SDS011;10421;49.142;9.232;2022-09-24T11:56:53;22.97;;;13.17;;
20525;SDS011;10421;49.142;9.232;2022-09-24T11:59:26;20.43;;;11.13;;
20525;SDS011;10421;49.142;9.232;2022-09-24T12:02:00;26.43;;;13.10;;
20525;SDS011;10421;49.142;9.232;2022-09-24T12:04:39;22.63;;;11.90;;
20525;SDS011;10421;49.142;9.232;2022-09-24T12:07:14;18.97;;;8.73;;
20525;SDS011;10421;49.142;9.232;2022-09-24T12:09:49;16.80;;;9.53;;
20525;SDS011;10421;49.142;9.232;2022-09-24T12:12:21;17.50;;;10.40;;
20525;SDS011;10421;49.142;9.232;2022-09-24T12:14:53;15.90;;;9.87;;
20525;SDS011;10421;49.142;9.232;2022-09-24T12:17:26;19.27;;;11.37;;
20525;SDS011;10421;49.142;9.232;2022-09-24T12:19:58;27.73;;;11.03;;
20525;SDS011;10421;49.142;9.232;2022-09-24T12:22:27;18.20;;;11.70;;
20525;SDS011;10421;49.142;9.232;2022-09-24T12:24:58;21.93;;;11.90;;
20525;SDS011;10421;49.142;9.232;2022-09-24T12:27:26;19.07;;;11.30;;
20525;SDS011;10421;49.142;9.232;2022-09-24T12:29:59;15.30;;;10.13;;
20525;SDS011;10421;49.142;9.232;2022-09-24T12:33:01;22.03;;;9.03;;
20525;SDS011;10421;49.142;9.232;2022-09-24T12:35:36;19.77;;;12.13;;
20525;SDS011;10421;49.142;9.232;2022-09-24T12:38:12;20.27;;;12.67;;
20525;SDS011;10421;49.142;9.232;2022-09-24T12:40:53;18.60;;;11.53;;
20525;SDS011;10421;49.142;9.232;2022-09-24T12:43:41;21.20;;;11.17;;
20525;SDS011;10421;49.142;9.232;2022-09-24T12:46:14;17.13;;;10.63;;
20525;SDS011;10421;49.142;9.232;2022-09-24T12:48:44;17.03;;;9.40;;
20525;SDS011;10421;49.142;9.232;2022-09-24T12:51:13;20.50;;;11.90;;
20525;SDS011;10421;49.142;9.232;2022-09-24T12:53:53;20.87;;;11.37;;
20525;SDS011;10421;49.142;9.232;2022-09-24T12:56:23;20.00;;;12.07;;
20525;SDS011;10421;49.142;9.232;2022-09-24T12:58:53;22.30;;;13.37;;
20525;SDS011;10421;49.142;9.232;2022-09-24T13:01:26;16.70;;;10.47;;
20525;SDS011;10421;49.142;9.232;2022-09-24T13:04:01;19.73;;;12.63;;
20525;SDS011;10421;49.142;9.232;2022-09-24T13:06:31;16.27;;;10.33;;
20525;SDS011;10421;49.142;9.232;2022-09-24T13:08:59;17.23;;;11.63;;
20525;SDS011;10421;49.142;9.232;2022-09-24T13:11:29;15.33;;;11.03;;
20525;SDS011;10421;49.142;9.232;2022-09-24T13:16:28;23.50;;;14.10;;
20525;SDS011;10421;49.142;9.232;2022-09-24T13:18:57;15.80;;;10.53;;
20525;SDS011;10421;49.142;9.232;2022-09-24T13:21:25;17.13;;;11.20;;
20525;SDS011;10421;49.142;9.232;2022-09-24T13:23:54;17.00;;;11.83;;
20525;SDS011;10421;49.142;9.232;2022-09-24T13:26:26;15.33;;;10.63;;
20525;SDS011;10421;49.142;9.232;2022-09-24T13:28:58;19.30;;;12.10;;
20525;SDS011;10421;49.142;9.232;2022-09-24T13:31:30;19.40;;;11.33;;
20525;SDS011;10421;49.142;9.232;2022-09-24T13:34:03;15.63;;;10.33;;
20525;SDS011;10421;49.142;9.232;2022-09-24T13:36:40;16.70;;;11.20;;
20525;SDS011;10421;49.142;9.232;2022-09-24T13:39:12;13.50;;;10.00;;
20525;SDS011;10421;49.142;9.232;2022-09-24T13:41:44;14.27;;;9.87;;
20525;SDS011;10421;49.142;9.232;2022-09-24T13:44:16;15.83;;;10.07;;
20525;SDS011;10421;49.142;9.232;2022-09-24T13:46:49;16.43;;;10.50;;
20525;SDS011;10421;49.142;9.232;2022-09-24T13:49:21;15.50;;;10.80;;
20525;SDS011;10421;49.142;9.232;2022-09-24T13:51:51;14.40;;;10.57;;
20525;SDS011;10421;49.142;9.232;2022-09-24T13:54:29;16.13;;;10.40;;
20525;SDS011;10421;49.142;9.232;2022-09-24T13:57:01;17.87;;;11.63;;
20525;SDS011;10421;49.142;9.232;2022-09-24T13:59:36;17.40;;;10.50;;
20525;SDS011;10421;49.142;9.232;2022-09-24T14:02:03;17.93;;;10.40;;
20525;SDS011;10421;49.142;9.232;2022-09-24T14:04:47;15.87;;;11.10;;
20525;SDS011;10421;49.142;9.232;2022-09-24T14:07:18;15.50;;;9.80;;
20525;SDS011;10421;49.142;9.232;2022-09-24T14:09:46;14.87;;;10.57;;
20525;SDS011;10421;49.142;9.232;2022-09-24T14:12:14;18.43;;;10.20;;
20525;SDS011;10421;49.142;9.232;2022-09-24T14:14:50;13.50;;;9.93;;
20525;SDS011;10421;49.142;9.232;2022-09-24T14:17:22;12.13;;;8.90;;
20525;SDS011;10421;49.142;9.232;2022-09-24T14:19:52;19.90;;;13.80;;
20525;SDS011;10421;49.142;9.232;2022-09-24T14:22:22;26.80;;;15.93;;
20525;SDS011;10421;49.142;9.232;2022-09-24T14:24:53;26.80;;;16.83;;
20525;SDS011;10421;49.142;9.232;2022-09-24T14:27:25;20.37;;;12.63;;
20525;SDS011;10421;49.142;9.232;2022-09-24T14:29:55;15.87;;;11.37;;
20525;SDS011;10421;49.142;9.232;2022-09-24T14:32:26;22.10;;;12.17;;
20525;SDS011;10421;49.142;9.232;2022-09-24T14:34:56;12.70;;;8.50;;
20525;SDS011;10421;49.142;9.232;2022-09-24T14:37:25;13.90;;;9.40;;
20525;SDS011;10421;49.142;9.232;2022-09-24T14:39:56;19.00;;;10.00;;
20525;SDS011;10421;49.142;9.232;2022-09-24T14:42:28;15.73;;;10.23;;
20525;SDS011;10421;49.142;9.232;2022-09-24T14:44:58;16.07;;;11.27;;
20525;SDS011;10421;49.142;9.232;2022-09-24T14:47:28;17.20;;;10.87;;
20525;SDS011;10421;49.142;9.232;2022-09-24T14:49:57;15.77;;;10.20;;
20525;SDS011;10421;49.142;9.232;2022-09-24T14:52:26;15.80;;;10.90;;
20525;SDS011;10421;49.142;9.232;2022-09-24T14:55:03;15.90;;;9.93;;
20525;SDS011;10421;49.142;9.232;2022-09-24T14:57:40;14.97;;;10.40;;
20525;SDS011;10421;49.142;9.232;2022-09-24T15:00:18;20.20;;;12.10;;
20525;SDS011;10421;49.142;9.232;2022-09-24T15:02:47;14.67;;;9.50;;